createdAt,value
2018-08-10T00:01:41.686Z,100.00
2018-08-10T00:04:46.957Z,100.00
2018-08-10T00:07:51.647Z,100.00
2018-08-10T00:10:55.924Z,100.00
2018-08-10T00:14:00.254Z,100.00
2018-08-10T00:17:04.584Z,100.00
2018-08-10T00:20:15.966Z,100.00
2018-08-10T00:23:20.752Z,100.00
2018-08-10T00:26:25.240Z,100.00
2018-08-10T00:29:29.540Z,100.00
2018-08-10T00:32:33.827Z,100.00
2018-08-10T00:35:38.461Z,100.00
2018-08-10T00:38:42.770Z,100.00
2018-08-10T00:41:47.185Z,100.00
2018-08-10T00:44:51.605Z,100.00
2018-08-10T00:47:55.940Z,100.00
2018-08-10T00:51:00.462Z,100.00
2018-08-10T00:54:04.877Z,100.00
2018-08-10T00:57:09.155Z,100.00
2018-08-10T01:00:18.295Z,100.00
2018-08-10T01:03:22.576Z,100.00
2018-08-10T01:06:27.129Z,100.00
2018-08-10T01:09:31.516Z,100.00
2018-08-10T01:12:35.864Z,100.00
2018-08-10T01:15:40.200Z,100.00
2018-08-10T01:18:44.646Z,100.00
2018-08-10T01:21:48.937Z,100.00
2018-08-10T01:24:53.253Z,100.00
2018-08-10T01:27:59.755Z,100.00
2018-08-10T01:31:04.353Z,100.00
2018-08-10T01:34:08.671Z,100.00
2018-08-10T01:37:13.194Z,100.00
2018-08-10T01:40:18.274Z,100.00
2018-08-10T01:43:22.776Z,100.00
2018-08-10T01:46:27.116Z,100.00
2018-08-10T01:49:31.511Z,100.00
2018-08-10T01:52:35.870Z,100.00
2018-08-10T01:55:40.291Z,100.00
2018-08-10T01:58:45.032Z,100.00
2018-08-10T02:01:49.446Z,100.00
2018-08-10T02:04:53.759Z,100.00
2018-08-10T02:07:58.069Z,100.00
2018-08-10T02:11:02.368Z,100.00
2018-08-10T02:14:07.340Z,100.00
2018-08-10T02:17:11.648Z,100.00
2018-08-10T02:20:17.420Z,100.00
2018-08-10T02:23:21.728Z,100.00
2018-08-10T02:26:26.102Z,100.00
2018-08-10T02:29:30.433Z,100.00
2018-08-10T02:32:34.772Z,100.00
2018-08-10T02:35:39.065Z,100.00
2018-08-10T02:38:43.365Z,100.00
2018-08-10T02:41:47.664Z,100.00
2018-08-10T02:44:51.992Z,100.00
2018-08-10T02:47:56.352Z,100.00
2018-08-10T02:51:00.714Z,100.00
2018-08-10T02:54:05.074Z,100.00
2018-08-10T02:57:09.402Z,100.00
2018-08-10T03:00:15.624Z,100.00
2018-08-10T03:03:19.953Z,100.00
2018-08-10T03:06:24.305Z,100.00
2018-08-10T03:09:28.613Z,100.00
2018-08-10T03:12:33.174Z,100.00
2018-08-10T03:15:37.489Z,100.00
2018-08-10T03:18:41.831Z,100.00
2018-08-10T03:21:46.091Z,100.00
2018-08-10T03:24:50.357Z,100.00
2018-08-10T03:27:54.637Z,100.00
2018-08-10T03:30:58.935Z,100.00
2018-08-10T03:34:03.280Z,100.00
2018-08-10T03:37:07.649Z,100.00
2018-08-10T03:40:14.886Z,100.00
2018-08-10T03:43:19.181Z,100.00
2018-08-10T03:46:23.481Z,100.00
2018-08-10T03:49:27.746Z,100.00
2018-08-10T03:52:32.494Z,100.00
2018-08-10T03:55:36.847Z,100.00
2018-08-10T03:58:41.153Z,100.00
2018-08-10T04:01:45.988Z,100.00
2018-08-10T04:04:50.322Z,100.00
2018-08-10T04:07:54.580Z,100.00
2018-08-10T04:10:59.173Z,100.00
2018-08-10T04:14:03.469Z,100.00
2018-08-10T04:17:11.913Z,100.00
2018-08-10T04:20:16.260Z,100.00
2018-08-10T04:23:20.709Z,100.00
2018-08-10T04:26:25.085Z,100.00
2018-08-10T04:29:30.675Z,100.00
2018-08-10T04:32:35.060Z,100.00
2018-08-10T04:35:39.424Z,100.00
2018-08-10T04:38:43.759Z,100.00
2018-08-10T04:41:48.225Z,100.00
2018-08-10T04:44:52.657Z,100.00
2018-08-10T04:48:04.880Z,100.00
2018-08-10T04:51:09.350Z,100.00
2018-08-10T04:54:14.049Z,100.00
2018-08-10T04:57:18.463Z,100.00
2018-08-10T05:00:23.523Z,100.00
2018-08-10T05:03:28.088Z,100.00
2018-08-10T05:06:32.752Z,100.00
2018-08-10T05:09:37.110Z,100.00
2018-08-10T05:12:41.757Z,100.00
2018-08-10T05:15:46.526Z,100.00
2018-08-10T05:18:51.120Z,100.00
2018-08-10T05:21:55.609Z,100.00
2018-08-10T05:25:00.228Z,100.00
2018-08-10T05:28:05.334Z,100.00
2018-08-10T05:31:09.722Z,100.00
2018-08-10T05:34:14.185Z,100.00
2018-08-10T05:37:18.586Z,100.00
2018-08-10T05:40:23.039Z,100.00
2018-08-10T05:43:27.341Z,100.00
2018-08-10T05:46:31.719Z,100.00
2018-08-10T05:49:36.079Z,100.00
2018-08-10T05:52:40.464Z,100.00
2018-08-10T05:55:44.737Z,100.00
2018-08-10T05:58:49.276Z,100.00
2018-08-10T06:01:54.144Z,100.00
2018-08-10T06:04:58.990Z,100.00
2018-08-10T06:08:03.565Z,100.00
2018-08-10T06:11:08.361Z,100.00
2018-08-10T06:14:14.463Z,100.00
2018-08-10T06:17:18.921Z,100.00
2018-08-10T06:20:23.629Z,100.00
2018-08-10T06:23:28.091Z,100.00
2018-08-10T06:26:32.576Z,100.00
2018-08-10T06:29:36.848Z,100.00
2018-08-10T06:32:41.280Z,100.00
2018-08-10T06:35:45.657Z,100.00
2018-08-10T06:38:49.923Z,100.00
2018-08-10T06:41:54.745Z,100.00
2018-08-10T06:44:59.159Z,100.00
2018-08-10T06:48:03.483Z,100.00
2018-08-10T06:51:07.885Z,100.00
2018-08-10T06:54:12.385Z,100.00
2018-08-10T06:57:16.737Z,100.00
2018-08-10T07:00:21.550Z,100.00
2018-08-10T07:03:26.450Z,100.00
2018-08-10T07:06:33.196Z,100.00
2018-08-10T07:09:37.620Z,100.00
2018-08-10T07:12:42.081Z,100.00
2018-08-10T07:15:46.360Z,100.00
2018-08-10T07:18:50.688Z,100.00
2018-08-10T07:21:54.980Z,100.00
2018-08-10T07:24:59.420Z,100.00
2018-08-10T07:28:04.060Z,100.00
2018-08-10T07:31:08.509Z,100.00
2018-08-10T07:34:12.893Z,100.00
2018-08-10T07:37:17.296Z,100.00
2018-08-10T07:40:21.812Z,100.00
2018-08-10T07:43:26.216Z,100.00
2018-08-10T07:46:30.884Z,100.00
2018-08-10T07:49:35.352Z,100.00
2018-08-10T07:52:39.644Z,99.98
2018-08-10T07:55:44.121Z,100.00
2018-08-10T07:58:48.497Z,100.00
2018-08-10T08:01:52.829Z,100.00
2018-08-10T08:04:57.493Z,100.00
2018-08-10T08:08:01.983Z,100.00
2018-08-10T08:11:06.646Z,100.00
2018-08-10T08:14:11.159Z,99.60
2018-08-10T08:17:15.700Z,99.04
2018-08-10T08:20:20.221Z,98.60
2018-08-10T08:23:24.831Z,100.00
2018-08-10T08:26:29.797Z,99.28
2018-08-10T08:29:34.620Z,99.70
2018-08-10T08:32:39.032Z,99.40
2018-08-10T08:35:43.602Z,98.68
2018-08-10T08:41:07.612Z,99.47
2018-08-10T08:45:41.511Z,99.50
2018-08-10T08:48:51.000Z,97.28
2018-08-10T08:51:56.373Z,99.37
2018-08-10T08:55:34.112Z,98.87
2018-08-10T08:58:39.130Z,98.11
2018-08-10T09:01:43.503Z,98.78
2018-08-10T09:05:00.667Z,99.32
2018-08-10T09:08:05.020Z,99.41
2018-08-10T09:11:09.900Z,98.50
2018-08-10T09:14:49.129Z,98.42
2018-08-10T09:17:53.722Z,98.27
2018-08-10T09:20:58.019Z,98.17
2018-08-10T09:24:02.421Z,99.00
2018-08-10T09:27:06.974Z,99.02
2018-08-10T09:30:13.991Z,98.65
2018-08-10T09:33:18.439Z,97.75
2018-08-10T09:36:22.788Z,97.88
2018-08-10T09:39:27.544Z,98.10
2018-08-10T09:42:31.801Z,98.88
2018-08-10T09:45:36.207Z,98.67
2018-08-10T09:48:40.582Z,97.58
2018-08-10T09:51:45.020Z,99.12
2018-08-10T09:55:34.554Z,99.99
2018-08-10T09:58:39.083Z,97.50
2018-08-10T10:01:43.496Z,98.51
2018-08-10T10:04:48.053Z,98.96
2018-08-10T10:07:53.384Z,99.67
2018-08-10T10:10:57.884Z,98.69
2018-08-10T10:14:02.268Z,97.04
2018-08-10T10:17:07.377Z,96.85
2018-08-10T10:20:11.906Z,95.91
2018-08-10T10:23:16.976Z,93.29
2018-08-10T10:26:21.239Z,92.42
2018-08-10T10:29:25.729Z,92.19
2018-08-10T10:32:30.558Z,94.06
2018-08-10T10:35:34.884Z,91.28
2018-08-10T10:38:39.493Z,94.72
2018-08-10T10:41:43.797Z,92.97
2018-08-10T10:44:48.295Z,91.71
2018-08-10T10:47:52.658Z,92.67
2018-08-10T10:50:57.035Z,90.15
2018-08-10T10:54:01.309Z,92.03
2018-08-10T10:57:05.683Z,90.31
2018-08-10T11:00:16.942Z,90.09
2018-08-10T11:03:21.268Z,90.36
2018-08-10T11:06:25.641Z,91.63
2018-08-10T11:09:29.914Z,92.15
2018-08-10T11:12:34.240Z,92.92
2018-08-10T11:15:38.912Z,93.74
2018-08-10T11:18:43.486Z,95.96
2018-08-10T11:21:47.942Z,93.17
2018-08-10T11:24:52.373Z,92.23
2018-08-10T11:27:56.943Z,94.54
2018-08-10T11:31:01.292Z,92.60
2018-08-10T11:34:13.249Z,92.27
2018-08-10T11:37:17.560Z,94.22
2018-08-10T11:40:21.882Z,89.06
2018-08-10T11:43:26.392Z,88.82
2018-08-10T11:46:30.864Z,87.84
2018-08-10T11:49:36.390Z,86.31
2018-08-10T11:52:40.897Z,87.95
2018-08-10T11:55:45.181Z,89.70
2018-08-10T11:58:50.937Z,88.52
2018-08-10T12:01:55.269Z,86.44
2018-08-10T12:04:59.610Z,86.59
2018-08-10T12:08:04.045Z,88.74
2018-08-10T12:11:08.992Z,90.37
2018-08-10T12:14:13.599Z,85.36
2018-08-10T12:17:17.920Z,83.65
2018-08-10T12:20:22.325Z,84.69
2018-08-10T12:23:26.863Z,86.14
2018-08-10T12:26:31.305Z,85.29
2018-08-10T12:29:36.615Z,84.88
2018-08-10T12:32:41.225Z,85.61
2018-08-10T12:35:45.916Z,85.70
2018-08-10T12:38:50.325Z,86.96
2018-08-10T12:41:54.684Z,90.00
2018-08-10T12:44:59.041Z,87.16
2018-08-10T12:48:03.502Z,87.87
2018-08-10T12:51:08.548Z,87.99
2018-08-10T12:54:12.841Z,88.60
2018-08-10T12:57:17.228Z,87.39
2018-08-10T13:00:21.553Z,86.86
2018-08-10T13:03:26.190Z,86.21
2018-08-10T13:06:30.652Z,85.88
2018-08-10T13:09:35.090Z,86.21
2018-08-10T13:12:39.492Z,86.47
2018-08-10T13:15:43.777Z,88.11
2018-08-10T13:18:48.297Z,86.03
2018-08-10T13:21:52.643Z,85.30
2018-08-10T13:24:57.276Z,84.26
2018-08-10T13:28:01.670Z,84.85
2018-08-10T13:31:06.136Z,87.59
2018-08-10T13:34:11.800Z,89.13
2018-08-10T13:37:16.428Z,90.40
2018-08-10T13:40:20.933Z,85.93
2018-08-10T13:43:25.665Z,86.10
2018-08-10T13:46:30.186Z,82.28
2018-08-10T13:49:34.907Z,81.84
2018-08-10T13:52:39.226Z,81.30
2018-08-10T13:55:43.575Z,82.27
2018-08-10T13:58:48.306Z,80.73
2018-08-10T14:01:52.608Z,80.09
2018-08-10T14:04:56.952Z,81.44
2018-08-10T14:08:01.470Z,77.70
2018-08-10T14:11:05.999Z,74.82
2018-08-10T14:14:10.341Z,77.80
2018-08-10T14:17:14.701Z,77.31
2018-08-10T14:20:19.641Z,79.14
2018-08-10T14:23:24.106Z,81.74
2018-08-10T14:26:28.767Z,79.51
2018-08-10T14:29:33.239Z,83.16
2018-08-10T14:32:37.594Z,82.17
2018-08-10T14:35:41.901Z,82.97
2018-08-10T14:38:46.260Z,85.05
2018-08-10T14:41:50.537Z,86.27
2018-08-10T14:44:55.092Z,84.12
2018-08-10T14:47:59.579Z,85.25
2018-08-10T14:51:03.977Z,86.04
2018-08-10T14:54:08.285Z,85.93
2018-08-10T14:57:13.955Z,86.84
2018-08-10T15:00:20.477Z,87.31
2018-08-10T15:03:25.351Z,86.64
2018-08-10T15:06:29.808Z,86.71
2018-08-10T15:09:34.643Z,86.63
2018-08-10T15:12:40.591Z,87.71
2018-08-10T15:15:44.676Z,86.90
2018-08-10T15:18:49.257Z,86.39
2018-08-10T15:21:53.593Z,87.84
2018-08-10T15:24:58.057Z,89.47
2018-08-10T15:28:02.361Z,88.81
2018-08-10T15:31:06.794Z,88.41
2018-08-10T15:34:11.283Z,88.52
2018-08-10T15:37:15.760Z,87.06
2018-08-10T15:40:20.539Z,85.98
2018-08-10T15:43:25.082Z,85.67
2018-08-10T15:46:29.453Z,83.75
2018-08-10T15:49:33.830Z,84.07
2018-08-10T15:52:38.873Z,85.70
2018-08-10T15:55:43.369Z,85.29
2018-08-10T15:58:47.953Z,85.23
2018-08-10T16:01:52.311Z,85.62
2018-08-10T16:04:56.791Z,85.51
2018-08-10T16:08:01.208Z,86.46
2018-08-10T16:11:05.476Z,86.74
2018-08-10T16:14:10.912Z,86.15
2018-08-10T16:17:15.241Z,85.94
2018-08-10T16:20:21.624Z,86.64
2018-08-10T16:23:25.995Z,88.02
2018-08-10T16:26:30.912Z,87.20
2018-08-10T16:29:35.413Z,86.25
2018-08-10T16:32:41.300Z,86.34
2018-08-10T16:35:45.633Z,87.51
2018-08-10T16:38:49.984Z,88.48
2018-08-10T16:41:54.566Z,86.79
2018-08-10T16:44:59.093Z,88.63
2018-08-10T16:48:04.228Z,86.89
2018-08-10T16:51:09.164Z,88.24
2018-08-10T16:54:13.607Z,87.33
2018-08-10T16:57:18.457Z,87.78
2018-08-10T17:00:22.798Z,87.85
2018-08-10T17:03:27.134Z,87.98
2018-08-10T17:06:31.531Z,91.22
2018-08-10T17:09:36.252Z,91.37
2018-08-10T17:12:41.772Z,91.38
2018-08-10T17:15:46.480Z,91.27
2018-08-10T17:18:51.184Z,90.69
2018-08-10T17:21:55.572Z,90.76
2018-08-10T17:24:59.913Z,90.99
2018-08-10T17:28:04.813Z,91.91
2018-08-10T17:31:09.305Z,91.84
2018-08-10T17:34:20.085Z,92.60
2018-08-10T17:37:24.534Z,92.45
2018-08-10T17:40:29.157Z,93.39
2018-08-10T17:43:33.693Z,93.36
2018-08-10T17:46:39.066Z,94.59
2018-08-10T17:49:43.584Z,94.04
2018-08-10T17:52:49.642Z,92.95
2018-08-10T17:55:54.241Z,93.10
2018-08-10T17:58:59.051Z,94.08
2018-08-10T18:02:05.117Z,93.79
2018-08-10T18:05:12.360Z,95.07
2018-08-10T18:08:16.968Z,94.90
2018-08-10T18:11:22.718Z,94.73
2018-08-10T18:14:27.294Z,94.26
2018-08-10T18:17:31.733Z,93.96
2018-08-10T18:20:36.371Z,94.41
2018-08-10T18:23:40.895Z,95.52
2018-08-10T18:26:45.830Z,94.67
2018-08-10T18:29:50.353Z,94.93
2018-08-10T18:32:54.997Z,95.72
2018-08-10T18:35:59.793Z,95.50
2018-08-10T18:39:09.682Z,95.55
2018-08-10T18:42:14.212Z,96.07
2018-08-10T18:45:20.504Z,95.94
2018-08-10T18:48:25.054Z,96.33
2018-08-10T18:51:29.689Z,95.98
2018-08-10T18:54:34.037Z,96.11
2018-08-10T18:57:38.670Z,96.14
2018-08-10T19:00:43.428Z,95.44
2018-08-10T19:03:47.878Z,96.01
2018-08-10T19:06:52.303Z,96.03
2018-08-10T19:09:56.697Z,95.62
2018-08-10T19:13:01.033Z,96.16
2018-08-10T19:16:06.121Z,96.03
2018-08-10T19:19:10.583Z,96.92
2018-08-10T19:22:15.288Z,96.64
2018-08-10T19:25:19.817Z,96.70
2018-08-10T19:28:24.147Z,97.11
2018-08-10T19:31:28.704Z,97.09
2018-08-10T19:34:34.048Z,97.76
2018-08-10T19:37:38.917Z,98.07
2018-08-10T19:40:43.517Z,99.29
2018-08-10T19:43:48.451Z,98.36
2018-08-10T19:46:53.358Z,98.73
2018-08-10T19:49:57.783Z,99.13
2018-08-10T19:53:02.254Z,99.27
2018-08-10T19:56:06.712Z,99.43
2018-08-10T19:59:11.050Z,99.25
2018-08-10T20:02:16.148Z,99.42
2018-08-10T20:05:20.639Z,99.45
2018-08-10T20:08:25.457Z,99.88
2018-08-10T20:11:29.853Z,99.82
2018-08-10T20:14:34.324Z,100.00
2018-08-10T20:17:39.496Z,100.00
2018-08-10T20:20:43.866Z,100.00
2018-08-10T20:23:48.316Z,100.00
2018-08-10T20:26:53.571Z,100.00
2018-08-10T20:29:57.968Z,100.00
2018-08-10T20:33:02.573Z,100.00
2018-08-10T20:36:07.040Z,100.00
2018-08-10T20:39:12.185Z,100.00
2018-08-10T20:42:16.661Z,100.00
2018-08-10T20:45:22.028Z,100.00
2018-08-10T20:48:26.517Z,100.00
2018-08-10T20:51:31.021Z,100.00
2018-08-10T20:54:35.470Z,100.00
2018-08-10T20:57:41.161Z,100.00
2018-08-10T21:00:45.558Z,100.00
2018-08-10T21:03:50.148Z,100.00
2018-08-10T21:06:54.461Z,100.00
2018-08-10T21:09:58.901Z,100.00
2018-08-10T21:13:03.817Z,100.00
2018-08-10T21:16:08.366Z,100.00
2018-08-10T21:19:12.809Z,100.00
2018-08-10T21:22:17.297Z,100.00
2018-08-10T21:25:21.680Z,100.00
2018-08-10T21:28:27.096Z,100.00
2018-08-10T21:31:31.523Z,100.00
2018-08-10T21:34:36.098Z,100.00
2018-08-10T21:37:41.486Z,100.00
2018-08-10T21:40:45.857Z,100.00
2018-08-10T21:43:50.733Z,100.00
2018-08-10T21:46:55.113Z,100.00
2018-08-10T21:49:59.928Z,100.00
2018-08-10T21:53:04.284Z,100.00
2018-08-10T21:56:08.928Z,100.00
2018-08-10T21:59:13.568Z,100.00
2018-08-10T22:02:18.958Z,100.00
2018-08-10T22:05:23.462Z,100.00
2018-08-10T22:08:27.781Z,100.00
2018-08-10T22:11:32.530Z,100.00
2018-08-10T22:14:41.973Z,100.00
2018-08-10T22:17:51.723Z,100.00
2018-08-10T22:20:56.614Z,100.00
2018-08-10T22:24:00.927Z,100.00
2018-08-10T22:27:05.264Z,100.00
2018-08-10T22:30:09.557Z,100.00
2018-08-10T22:33:13.832Z,100.00
2018-08-10T22:36:18.708Z,100.00
2018-08-10T22:39:23.107Z,100.00
2018-08-10T22:42:27.536Z,100.00
2018-08-10T22:45:32.077Z,100.00
2018-08-10T22:48:36.393Z,100.00
2018-08-10T22:51:40.684Z,100.00
2018-08-10T22:54:45.650Z,100.00
2018-08-10T22:57:50.332Z,100.00
2018-08-10T23:00:55.236Z,100.00
2018-08-10T23:04:00.110Z,100.00
2018-08-10T23:07:04.405Z,100.00
2018-08-10T23:10:11.153Z,100.00
2018-08-10T23:13:15.992Z,100.00
2018-08-10T23:16:20.668Z,100.00
2018-08-10T23:19:24.975Z,100.00
2018-08-10T23:22:29.274Z,100.00
2018-08-10T23:25:33.709Z,100.00
2018-08-10T23:28:38.074Z,100.00
2018-08-10T23:31:42.478Z,100.00
2018-08-10T23:34:47.040Z,100.00
2018-08-10T23:37:51.394Z,100.00
2018-08-10T23:40:55.669Z,100.00
2018-08-10T23:43:59.950Z,100.00
2018-08-10T23:47:04.536Z,100.00
2018-08-10T23:50:12.406Z,100.00
2018-08-10T23:53:16.729Z,100.00
2018-08-10T23:56:20.988Z,100.00
2018-08-10T23:59:25.518Z,100.00
